Skip Navigation LinksHome page > Weather > Current weather Skip Navigation Links

Current Weather

Ben-Gurion Intl Apt, Tel Aviv, Israel

For information only: do not use for flight planning or navigation.
Latest weather
Observation time Saturday, December 20, 2014 10:20 PM IST
Local time Saturday, December 20, 2014 10:46 PM IST
Flight conditions Visual Meteorological Conditions
Winds
Wind direction East (100°)
Wind speed 6 mph
Visibility 6.2 mi.
Sky condition
Ceiling unlimited
Cloud layer few clouds 3,500 ft.
Temperature 57°F
Dewpoint 54°F
Altimeter 30.12 in.Hg
Derived measurements
Relative humidity 88%
Density altitude 10 ft.
Remarks
No significant changes expected in the next two hours.
METAR LLBG 202020Z 10005KT 9999 FEW035 14/12 Q1020 NOSIG RMK SCT065

Settings

Location code

InnerDrive.Weather 4.0.5399.0 Release CLR 4.0.30319.34014
Copyright ©2014 Inner Drive Technology. All rights reserved. Portions Copyright ©1986-2014 David Braverman.

Find weather

Site navigation


Skip Navigation Links

Place info

Page info

PayPal - The safer, easier way to pay online!

Return home.

Copyright ©2014 Inner Drive Technology. Purveyors of fine, hand-crafted computer software. Page printed 2014-12-20T20:46:29 UTC.